sensor_id;sensor_type;location;lat;lon;timestamp;P1;durP1;ratioP1;P2;durP2;ratioP2
6280;SDS011;3173;48.204;11.612;2022-10-16T00:00:28;2.00;;;1.43;;
6280;SDS011;3173;48.204;11.612;2022-10-16T00:02:54;3.60;;;1.80;;
6280;SDS011;3173;48.204;11.612;2022-10-16T00:05:20;2.70;;;1.43;;
6280;SDS011;3173;48.204;11.612;2022-10-16T00:07:46;2.10;;;1.60;;
6280;SDS011;3173;48.204;11.612;2022-10-16T00:10:12;7.10;;;1.73;;
6280;SDS011;3173;48.204;11.612;2022-10-16T00:12:38;2.13;;;1.67;;
6280;SDS011;3173;48.204;11.612;2022-10-16T00:15:05;2.57;;;1.60;;
6280;SDS011;3173;48.204;11.612;2022-10-16T00:17:31;4.67;;;2.20;;
6280;SDS011;3173;48.204;11.612;2022-10-16T00:19:57;3.43;;;1.73;;
6280;SDS011;3173;48.204;11.612;2022-10-16T00:22:23;3.30;;;1.63;;
6280;SDS011;3173;48.204;11.612;2022-10-16T00:24:49;4.60;;;1.23;;
6280;SDS011;3173;48.204;11.612;2022-10-16T00:27:15;2.23;;;1.40;;
6280;SDS011;3173;48.204;11.612;2022-10-16T00:29:41;4.00;;;1.60;;
6280;SDS011;3173;48.204;11.612;2022-10-16T00:32:08;1.93;;;1.30;;
6280;SDS011;3173;48.204;11.612;2022-10-16T00:34:34;2.10;;;1.90;;
6280;SDS011;3173;48.204;11.612;2022-10-16T00:37:00;4.50;;;1.33;;
6280;SDS011;3173;48.204;11.612;2022-10-16T00:39:26;9.63;;;2.00;;
6280;SDS011;3173;48.204;11.612;2022-10-16T00:41:52;3.93;;;1.50;;
6280;SDS011;3173;48.204;11.612;2022-10-16T00:47:02;4.17;;;1.80;;
6280;SDS011;3173;48.204;11.612;2022-10-16T00:49:28;6.50;;;1.70;;
6280;SDS011;3173;48.204;11.612;2022-10-16T00:51:54;5.20;;;1.90;;
6280;SDS011;3173;48.204;11.612;2022-10-16T00:54:22;5.47;;;1.60;;
6280;SDS011;3173;48.204;11.612;2022-10-16T00:56:48;2.93;;;1.70;;
6280;SDS011;3173;48.204;11.612;2022-10-16T00:59:37;5.43;;;1.47;;
6280;SDS011;3173;48.204;11.612;2022-10-16T01:02:02;2.00;;;1.40;;
6280;SDS011;3173;48.204;11.612;2022-10-16T01:04:32;2.63;;;1.53;;
6280;SDS011;3173;48.204;11.612;2022-10-16T01:09:44;2.10;;;1.40;;
6280;SDS011;3173;48.204;11.612;2022-10-16T01:12:33;1.93;;;1.40;;
6280;SDS011;3173;48.204;11.612;2022-10-16T01:15:04;1.93;;;1.20;;
6280;SDS011;3173;48.204;11.612;2022-10-16T01:22:58;11.23;;;1.80;;
6280;SDS011;3173;48.204;11.612;2022-10-16T01:27:56;7.47;;;1.80;;
6280;SDS011;3173;48.204;11.612;2022-10-16T01:30:24;2.60;;;1.67;;
6280;SDS011;3173;48.204;11.612;2022-10-16T01:35:30;3.47;;;1.63;;
6280;SDS011;3173;48.204;11.612;2022-10-16T01:38:02;3.60;;;1.60;;
6280;SDS011;3173;48.204;11.612;2022-10-16T01:40:29;2.67;;;1.40;;
6280;SDS011;3173;48.204;11.612;2022-10-16T01:42:59;3.50;;;1.77;;
6280;SDS011;3173;48.204;11.612;2022-10-16T01:45:26;5.37;;;1.50;;
6280;SDS011;3173;48.204;11.612;2022-10-16T01:47:54;1.90;;;1.10;;
6280;SDS011;3173;48.204;11.612;2022-10-16T01:50:20;1.70;;;1.50;;
6280;SDS011;3173;48.204;11.612;2022-10-16T01:52:47;2.43;;;1.40;;
6280;SDS011;3173;48.204;11.612;2022-10-16T01:55:14;1.63;;;1.40;;
6280;SDS011;3173;48.204;11.612;2022-10-16T01:57:42;3.30;;;1.37;;
6280;SDS011;3173;48.204;11.612;2022-10-16T02:00:10;2.53;;;1.43;;
6280;SDS011;3173;48.204;11.612;2022-10-16T02:02:37;2.90;;;1.50;;
6280;SDS011;3173;48.204;11.612;2022-10-16T02:05:12;7.00;;;1.60;;
6280;SDS011;3173;48.204;11.612;2022-10-16T02:07:40;2.00;;;1.30;;
6280;SDS011;3173;48.204;11.612;2022-10-16T02:10:07;3.43;;;1.50;;
6280;SDS011;3173;48.204;11.612;2022-10-16T02:12:33;2.07;;;1.23;;
6280;SDS011;3173;48.204;11.612;2022-10-16T02:15:02;2.37;;;1.30;;
6280;SDS011;3173;48.204;11.612;2022-10-16T02:17:28;2.20;;;1.37;;
6280;SDS011;3173;48.204;11.612;2022-10-16T02:19:54;2.60;;;1.40;;
6280;SDS011;3173;48.204;11.612;2022-10-16T02:22:24;1.63;;;1.20;;
6280;SDS011;3173;48.204;11.612;2022-10-16T02:29:55;1.97;;;1.43;;
6280;SDS011;3173;48.204;11.612;2022-10-16T02:32:24;3.37;;;1.20;;
6280;SDS011;3173;48.204;11.612;2022-10-16T02:34:51;4.77;;;1.20;;
6280;SDS011;3173;48.204;11.612;2022-10-16T02:37:17;2.60;;;1.50;;
6280;SDS011;3173;48.204;11.612;2022-10-16T02:39:44;2.30;;;1.07;;
6280;SDS011;3173;48.204;11.612;2022-10-16T02:42:13;1.70;;;1.10;;
6280;SDS011;3173;48.204;11.612;2022-10-16T02:44:40;5.57;;;1.30;;
6280;SDS011;3173;48.204;11.612;2022-10-16T02:47:06;3.80;;;1.53;;
6280;SDS011;3173;48.204;11.612;2022-10-16T02:49:32;2.40;;;1.17;;
6280;SDS011;3173;48.204;11.612;2022-10-16T02:51:58;3.80;;;1.40;;
6280;SDS011;3173;48.204;11.612;2022-10-16T02:54:23;2.30;;;1.33;;
6280;SDS011;3173;48.204;11.612;2022-10-16T02:56:49;1.93;;;1.20;;
6280;SDS011;3173;48.204;11.612;2022-10-16T02:59:16;3.73;;;1.27;;
6280;SDS011;3173;48.204;11.612;2022-10-16T03:01:42;2.80;;;1.63;;
6280;SDS011;3173;48.204;11.612;2022-10-16T03:04:08;2.40;;;1.40;;
6280;SDS011;3173;48.204;11.612;2022-10-16T03:06:34;2.03;;;1.50;;
6280;SDS011;3173;48.204;11.612;2022-10-16T03:09:00;2.13;;;1.07;;
6280;SDS011;3173;48.204;11.612;2022-10-16T03:11:26;6.83;;;1.50;;
6280;SDS011;3173;48.204;11.612;2022-10-16T03:13:53;1.97;;;1.10;;
6280;SDS011;3173;48.204;11.612;2022-10-16T03:16:19;1.53;;;1.20;;
6280;SDS011;3173;48.204;11.612;2022-10-16T03:18:47;1.60;;;1.00;;
6280;SDS011;3173;48.204;11.612;2022-10-16T03:21:14;3.67;;;1.60;;
6280;SDS011;3173;48.204;11.612;2022-10-16T03:23:40;2.00;;;1.40;;
6280;SDS011;3173;48.204;11.612;2022-10-16T03:26:06;2.23;;;1.30;;
6280;SDS011;3173;48.204;11.612;2022-10-16T03:28:32;1.90;;;1.23;;
6280;SDS011;3173;48.204;11.612;2022-10-16T03:30:58;7.13;;;1.63;;
6280;SDS011;3173;48.204;11.612;2022-10-16T03:33:23;2.73;;;1.10;;
6280;SDS011;3173;48.204;11.612;2022-10-16T03:35:53;3.93;;;1.47;;
6280;SDS011;3173;48.204;11.612;2022-10-16T03:38:19;2.83;;;1.20;;
6280;SDS011;3173;48.204;11.612;2022-10-16T03:40:46;2.80;;;1.40;;
6280;SDS011;3173;48.204;11.612;2022-10-16T03:43:12;2.03;;;1.30;;
6280;SDS011;3173;48.204;11.612;2022-10-16T03:45:37;4.47;;;1.40;;
6280;SDS011;3173;48.204;11.612;2022-10-16T03:48:03;1.83;;;1.30;;
6280;SDS011;3173;48.204;11.612;2022-10-16T03:50:29;4.63;;;1.40;;
6280;SDS011;3173;48.204;11.612;2022-10-16T03:52:55;2.60;;;1.63;;
6280;SDS011;3173;48.204;11.612;2022-10-16T03:55:21;2.93;;;1.00;;
6280;SDS011;3173;48.204;11.612;2022-10-16T03:57:47;2.43;;;1.20;;
6280;SDS011;3173;48.204;11.612;2022-10-16T04:00:13;1.97;;;1.20;;
6280;SDS011;3173;48.204;11.612;2022-10-16T04:02:39;5.53;;;1.40;;
6280;SDS011;3173;48.204;11.612;2022-10-16T04:05:05;4.40;;;2.40;;
6280;SDS011;3173;48.204;11.612;2022-10-16T04:07:31;2.30;;;1.33;;
6280;SDS011;3173;48.204;11.612;2022-10-16T04:09:57;1.73;;;1.40;;
6280;SDS011;3173;48.204;11.612;2022-10-16T04:12:24;3.40;;;1.43;;
6280;SDS011;3173;48.204;11.612;2022-10-16T04:14:50;4.37;;;1.40;;
6280;SDS011;3173;48.204;11.612;2022-10-16T04:17:16;5.03;;;1.43;;
6280;SDS011;3173;48.204;11.612;2022-10-16T04:19:42;4.30;;;1.40;;
6280;SDS011;3173;48.204;11.612;2022-10-16T04:22:08;2.10;;;1.33;;
6280;SDS011;3173;48.204;11.612;2022-10-16T04:24:34;3.13;;;1.27;;
6280;SDS011;3173;48.204;11.612;2022-10-16T04:27:00;5.53;;;1.30;;
6280;SDS011;3173;48.204;11.612;2022-10-16T04:29:26;1.77;;;1.10;;
6280;SDS011;3173;48.204;11.612;2022-10-16T04:31:52;3.73;;;1.30;;
6280;SDS011;3173;48.204;11.612;2022-10-16T04:34:18;3.37;;;1.40;;
6280;SDS011;3173;48.204;11.612;2022-10-16T04:36:44;4.93;;;1.73;;
6280;SDS011;3173;48.204;11.612;2022-10-16T04:39:12;2.97;;;1.33;;
6280;SDS011;3173;48.204;11.612;2022-10-16T04:41:38;2.80;;;1.47;;
6280;SDS011;3173;48.204;11.612;2022-10-16T04:44:04;3.73;;;1.23;;
6280;SDS011;3173;48.204;11.612;2022-10-16T04:46:30;2.47;;;1.50;;
6280;SDS011;3173;48.204;11.612;2022-10-16T04:48:55;2.47;;;1.40;;
6280;SDS011;3173;48.204;11.612;2022-10-16T04:51:21;4.27;;;1.40;;
6280;SDS011;3173;48.204;11.612;2022-10-16T04:53:47;2.70;;;1.60;;
6280;SDS011;3173;48.204;11.612;2022-10-16T04:56:13;5.33;;;1.97;;
6280;SDS011;3173;48.204;11.612;2022-10-16T04:58:40;2.70;;;1.60;;
6280;SDS011;3173;48.204;11.612;2022-10-16T05:01:06;5.30;;;1.50;;
6280;SDS011;3173;48.204;11.612;2022-10-16T05:03:32;2.40;;;1.60;;
6280;SDS011;3173;48.204;11.612;2022-10-16T05:05:58;3.43;;;1.40;;
6280;SDS011;3173;48.204;11.612;2022-10-16T05:08:24;8.40;;;1.50;;
6280;SDS011;3173;48.204;11.612;2022-10-16T05:10:50;3.37;;;1.40;;
6280;SDS011;3173;48.204;11.612;2022-10-16T05:13:16;2.30;;;1.47;;
6280;SDS011;3173;48.204;11.612;2022-10-16T05:15:42;3.53;;;1.37;;
6280;SDS011;3173;48.204;11.612;2022-10-16T05:18:12;5.33;;;1.57;;
6280;SDS011;3173;48.204;11.612;2022-10-16T05:20:37;3.40;;;1.73;;
6280;SDS011;3173;48.204;11.612;2022-10-16T05:23:03;4.60;;;1.50;;
6280;SDS011;3173;48.204;11.612;2022-10-16T05:25:29;5.53;;;1.47;;
6280;SDS011;3173;48.204;11.612;2022-10-16T05:27:55;2.60;;;1.40;;
6280;SDS011;3173;48.204;11.612;2022-10-16T05:30:21;3.70;;;1.53;;
6280;SDS011;3173;48.204;11.612;2022-10-16T05:32:48;4.60;;;1.97;;
6280;SDS011;3173;48.204;11.612;2022-10-16T05:35:15;5.23;;;1.73;;
6280;SDS011;3173;48.204;11.612;2022-10-16T05:37:41;5.67;;;1.83;;
6280;SDS011;3173;48.204;11.612;2022-10-16T05:40:07;2.70;;;1.73;;
6280;SDS011;3173;48.204;11.612;2022-10-16T05:42:33;6.80;;;1.60;;
6280;SDS011;3173;48.204;11.612;2022-10-16T05:44:59;2.63;;;1.63;;
6280;SDS011;3173;48.204;11.612;2022-10-16T05:47:25;3.10;;;1.67;;
6280;SDS011;3173;48.204;11.612;2022-10-16T05:49:51;2.93;;;1.77;;
6280;SDS011;3173;48.204;11.612;2022-10-16T05:52:18;4.40;;;2.10;;
6280;SDS011;3173;48.204;11.612;2022-10-16T05:54:44;3.10;;;1.73;;
6280;SDS011;3173;48.204;11.612;2022-10-16T05:57:10;2.10;;;1.30;;
6280;SDS011;3173;48.204;11.612;2022-10-16T05:59:36;4.70;;;1.60;;
6280;SDS011;3173;48.204;11.612;2022-10-16T06:02:02;5.20;;;1.80;;
6280;SDS011;3173;48.204;11.612;2022-10-16T06:04:27;4.20;;;1.80;;
6280;SDS011;3173;48.204;11.612;2022-10-16T06:06:53;2.47;;;1.97;;
6280;SDS011;3173;48.204;11.612;2022-10-16T06:09:19;3.43;;;1.50;;
6280;SDS011;3173;48.204;11.612;2022-10-16T06:11:45;3.00;;;1.50;;
6280;SDS011;3173;48.204;11.612;2022-10-16T06:14:11;2.77;;;1.77;;
6280;SDS011;3173;48.204;11.612;2022-10-16T06:16:37;3.07;;;1.80;;
6280;SDS011;3173;48.204;11.612;2022-10-16T06:19:04;2.40;;;1.77;;
6280;SDS011;3173;48.204;11.612;2022-10-16T06:21:34;2.73;;;1.93;;
6280;SDS011;3173;48.204;11.612;2022-10-16T06:24:00;2.43;;;1.50;;
6280;SDS011;3173;48.204;11.612;2022-10-16T06:26:27;4.47;;;1.43;;
6280;SDS011;3173;48.204;11.612;2022-10-16T06:28:54;2.20;;;1.60;;
6280;SDS011;3173;48.204;11.612;2022-10-16T06:31:20;2.20;;;1.77;;
6280;SDS011;3173;48.204;11.612;2022-10-16T06:33:49;3.93;;;1.53;;
6280;SDS011;3173;48.204;11.612;2022-10-16T06:36:16;2.37;;;1.60;;
6280;SDS011;3173;48.204;11.612;2022-10-16T06:38:42;3.87;;;1.53;;
6280;SDS011;3173;48.204;11.612;2022-10-16T06:41:13;2.80;;;1.97;;
6280;SDS011;3173;48.204;11.612;2022-10-16T06:43:39;3.10;;;1.80;;
6280;SDS011;3173;48.204;11.612;2022-10-16T06:46:06;2.77;;;1.93;;
6280;SDS011;3173;48.204;11.612;2022-10-16T06:48:33;3.60;;;2.10;;
6280;SDS011;3173;48.204;11.612;2022-10-16T06:51:00;3.23;;;2.10;;
6280;SDS011;3173;48.204;11.612;2022-10-16T06:53:31;3.27;;;2.30;;
6280;SDS011;3173;48.204;11.612;2022-10-16T06:55:57;3.00;;;1.90;;
6280;SDS011;3173;48.204;11.612;2022-10-16T06:58:23;5.73;;;2.50;;
6280;SDS011;3173;48.204;11.612;2022-10-16T07:00:54;5.40;;;2.43;;
6280;SDS011;3173;48.204;11.612;2022-10-16T07:03:21;5.93;;;2.67;;
6280;SDS011;3173;48.204;11.612;2022-10-16T07:05:47;3.77;;;2.13;;
6280;SDS011;3173;48.204;11.612;2022-10-16T07:08:13;3.80;;;2.80;;
6280;SDS011;3173;48.204;11.612;2022-10-16T07:10:39;5.47;;;2.10;;
6280;SDS011;3173;48.204;11.612;2022-10-16T07:13:05;5.00;;;2.60;;
6280;SDS011;3173;48.204;11.612;2022-10-16T07:15:32;3.63;;;2.60;;
6280;SDS011;3173;48.204;11.612;2022-10-16T07:17:58;10.60;;;2.60;;
6280;SDS011;3173;48.204;11.612;2022-10-16T07:20:24;6.90;;;2.57;;
6280;SDS011;3173;48.204;11.612;2022-10-16T07:22:50;5.67;;;2.00;;
6280;SDS011;3173;48.204;11.612;2022-10-16T07:25:17;8.83;;;2.33;;
6280;SDS011;3173;48.204;11.612;2022-10-16T07:27:43;3.23;;;2.00;;
6280;SDS011;3173;48.204;11.612;2022-10-16T07:30:09;3.43;;;2.13;;
6280;SDS011;3173;48.204;11.612;2022-10-16T07:32:35;3.43;;;2.30;;
6280;SDS011;3173;48.204;11.612;2022-10-16T07:35:01;7.37;;;2.00;;
6280;SDS011;3173;48.204;11.612;2022-10-16T07:37:27;4.80;;;2.23;;
6280;SDS011;3173;48.204;11.612;2022-10-16T07:39:53;2.53;;;1.83;;
6280;SDS011;3173;48.204;11.612;2022-10-16T07:42:19;3.43;;;2.00;;
6280;SDS011;3173;48.204;11.612;2022-10-16T07:44:45;5.87;;;1.87;;
6280;SDS011;3173;48.204;11.612;2022-10-16T07:47:11;6.27;;;2.63;;
6280;SDS011;3173;48.204;11.612;2022-10-16T07:49:37;3.43;;;2.17;;
6280;SDS011;3173;48.204;11.612;2022-10-16T07:52:03;3.40;;;2.40;;
6280;SDS011;3173;48.204;11.612;2022-10-16T07:54:29;3.50;;;1.63;;
6280;SDS011;3173;48.204;11.612;2022-10-16T07:56:55;5.37;;;1.97;;
6280;SDS011;3173;48.204;11.612;2022-10-16T07:59:21;4.30;;;2.03;;
6280;SDS011;3173;48.204;11.612;2022-10-16T08:01:48;3.27;;;1.80;;
6280;SDS011;3173;48.204;11.612;2022-10-16T08:04:14;5.70;;;1.90;;
6280;SDS011;3173;48.204;11.612;2022-10-16T08:06:40;3.20;;;1.70;;
6280;SDS011;3173;48.204;11.612;2022-10-16T08:09:06;4.30;;;2.17;;
6280;SDS011;3173;48.204;11.612;2022-10-16T08:11:33;3.37;;;1.90;;
6280;SDS011;3173;48.204;11.612;2022-10-16T08:13:59;3.40;;;1.60;;
6280;SDS011;3173;48.204;11.612;2022-10-16T08:16:25;2.27;;;1.67;;
6280;SDS011;3173;48.204;11.612;2022-10-16T08:18:51;3.20;;;1.40;;
6280;SDS011;3173;48.204;11.612;2022-10-16T08:21:18;2.50;;;1.40;;
6280;SDS011;3173;48.204;11.612;2022-10-16T08:23:44;1.73;;;1.30;;
6280;SDS011;3173;48.204;11.612;2022-10-16T08:26:11;1.67;;;1.10;;
6280;SDS011;3173;48.204;11.612;2022-10-16T08:28:37;1.97;;;1.07;;
6280;SDS011;3173;48.204;11.612;2022-10-16T08:31:10;4.83;;;1.20;;
6280;SDS011;3173;48.204;11.612;2022-10-16T08:33:37;3.60;;;1.50;;
6280;SDS011;3173;48.204;11.612;2022-10-16T08:36:04;1.17;;;0.80;;
6280;SDS011;3173;48.204;11.612;2022-10-16T08:38:30;1.50;;;1.00;;
6280;SDS011;3173;48.204;11.612;2022-10-16T08:40:59;2.23;;;1.10;;
6280;SDS011;3173;48.204;11.612;2022-10-16T08:43:35;2.93;;;1.17;;
6280;SDS011;3173;48.204;11.612;2022-10-16T08:46:21;2.93;;;1.00;;
6280;SDS011;3173;48.204;11.612;2022-10-16T08:48:51;1.17;;;0.90;;
6280;SDS011;3173;48.204;11.612;2022-10-16T08:51:19;2.47;;;0.90;;
6280;SDS011;3173;48.204;11.612;2022-10-16T08:53:49;1.40;;;0.90;;
6280;SDS011;3173;48.204;11.612;2022-10-16T08:56:15;1.50;;;0.80;;
6280;SDS011;3173;48.204;11.612;2022-10-16T08:58:43;3.10;;;0.90;;
6280;SDS011;3173;48.204;11.612;2022-10-16T09:01:11;4.57;;;1.03;;
6280;SDS011;3173;48.204;11.612;2022-10-16T09:06:28;1.60;;;0.90;;
6280;SDS011;3173;48.204;11.612;2022-10-16T09:16:52;1.33;;;1.23;;
6280;SDS011;3173;48.204;11.612;2022-10-16T09:21:46;1.33;;;0.90;;
6280;SDS011;3173;48.204;11.612;2022-10-16T09:24:17;0.83;;;0.67;;
6280;SDS011;3173;48.204;11.612;2022-10-16T09:26:44;1.00;;;0.63;;
6280;SDS011;3173;48.204;11.612;2022-10-16T09:29:13;1.53;;;0.70;;
6280;SDS011;3173;48.204;11.612;2022-10-16T09:31:39;1.30;;;0.80;;
6280;SDS011;3173;48.204;11.612;2022-10-16T09:34:08;1.83;;;0.90;;
6280;SDS011;3173;48.204;11.612;2022-10-16T09:36:40;2.23;;;0.83;;
6280;SDS011;3173;48.204;11.612;2022-10-16T09:39:09;1.00;;;0.70;;
6280;SDS011;3173;48.204;11.612;2022-10-16T09:41:37;2.00;;;0.77;;
6280;SDS011;3173;48.204;11.612;2022-10-16T09:44:04;1.37;;;0.83;;
6280;SDS011;3173;48.204;11.612;2022-10-16T09:46:34;1.27;;;0.70;;
6280;SDS011;3173;48.204;11.612;2022-10-16T09:49:02;1.63;;;1.00;;
6280;SDS011;3173;48.204;11.612;2022-10-16T09:53:55;1.00;;;0.70;;
6280;SDS011;3173;48.204;11.612;2022-10-16T09:56:23;1.10;;;0.77;;
6280;SDS011;3173;48.204;11.612;2022-10-16T09:58:50;1.00;;;0.90;;
6280;SDS011;3173;48.204;11.612;2022-10-16T10:01:17;1.53;;;0.90;;
6280;SDS011;3173;48.204;11.612;2022-10-16T10:03:43;1.03;;;0.60;;
6280;SDS011;3173;48.204;11.612;2022-10-16T10:08:53;0.90;;;0.70;;
6280;SDS011;3173;48.204;11.612;2022-10-16T10:11:41;0.80;;;0.60;;
6280;SDS011;3173;48.204;11.612;2022-10-16T10:14:15;1.20;;;0.60;;
6280;SDS011;3173;48.204;11.612;2022-10-16T10:16:45;0.90;;;0.70;;
6280;SDS011;3173;48.204;11.612;2022-10-16T10:19:16;1.92;;;0.80;;
6280;SDS011;3173;48.204;11.612;2022-10-16T10:21:43;2.70;;;0.80;;
6280;SDS011;3173;48.204;11.612;2022-10-16T10:24:10;1.00;;;0.88;;
6280;SDS011;3173;48.204;11.612;2022-10-16T10:26:36;0.80;;;0.60;;
6280;SDS011;3173;48.204;11.612;2022-10-16T10:31:53;1.65;;;0.80;;
6280;SDS011;3173;48.204;11.612;2022-10-16T10:37:43;0.85;;;0.75;;
6280;SDS011;3173;48.204;11.612;2022-10-16T10:43:24;1.52;;;0.65;;
6280;SDS011;3173;48.204;11.612;2022-10-16T10:46:13;1.23;;;0.82;;
6280;SDS011;3173;48.204;11.612;2022-10-16T10:51:29;1.00;;;0.80;;
6280;SDS011;3173;48.204;11.612;2022-10-16T10:54:07;0.70;;;0.70;;
6280;SDS011;3173;48.204;11.612;2022-10-16T10:56:50;1.63;;;0.70;;
6280;SDS011;3173;48.204;11.612;2022-10-16T10:59:37;3.65;;;0.77;;
6280;SDS011;3173;48.204;11.612;2022-10-16T11:02:28;1.13;;;0.60;;
6280;SDS011;3173;48.204;11.612;2022-10-16T11:08:10;1.15;;;0.50;;
6280;SDS011;3173;48.204;11.612;2022-10-16T11:13:23;1.13;;;0.70;;
6280;SDS011;3173;48.204;11.612;2022-10-16T11:16:03;0.98;;;0.40;;
6280;SDS011;3173;48.204;11.612;2022-10-16T11:18:49;0.80;;;0.50;;
6280;SDS011;3173;48.204;11.612;2022-10-16T11:21:46;0.90;;;0.50;;
6280;SDS011;3173;48.204;11.612;2022-10-16T11:27:21;1.52;;;0.40;;
6280;SDS011;3173;48.204;11.612;2022-10-16T11:29:57;4.75;;;0.50;;
6280;SDS011;3173;48.204;11.612;2022-10-16T11:32:34;0.90;;;0.40;;
6280;SDS011;3173;48.204;11.612;2022-10-16T11:35:24;1.77;;;0.40;;
6280;SDS011;3173;48.204;11.612;2022-10-16T11:37:57;0.80;;;0.40;;
6280;SDS011;3173;48.204;11.612;2022-10-16T11:40:33;0.63;;;0.40;;
6280;SDS011;3173;48.204;11.612;2022-10-16T11:46:16;1.05;;;0.40;;
6280;SDS011;3173;48.204;11.612;2022-10-16T11:48:48;1.35;;;0.50;;
6280;SDS011;3173;48.204;11.612;2022-10-16T11:51:21;1.02;;;0.40;;
6280;SDS011;3173;48.204;11.612;2022-10-16T11:53:59;1.80;;;0.40;;
6280;SDS011;3173;48.204;11.612;2022-10-16T11:56:38;0.80;;;0.40;;
6280;SDS011;3173;48.204;11.612;2022-10-16T12:01:45;0.70;;;0.40;;
6280;SDS011;3173;48.204;11.612;2022-10-16T12:04:21;0.88;;;0.50;;
6280;SDS011;3173;48.204;11.612;2022-10-16T12:06:52;1.37;;;0.50;;
6280;SDS011;3173;48.204;11.612;2022-10-16T12:09:28;0.90;;;0.50;;
6280;SDS011;3173;48.204;11.612;2022-10-16T12:11:55;0.70;;;0.50;;
6280;SDS011;3173;48.204;11.612;2022-10-16T12:14:42;2.00;;;0.60;;
6280;SDS011;3173;48.204;11.612;2022-10-16T12:17:23;0.80;;;0.50;;
6280;SDS011;3173;48.204;11.612;2022-10-16T12:20:12;1.52;;;0.52;;
6280;SDS011;3173;48.204;11.612;2022-10-16T12:22:55;2.03;;;0.77;;
6280;SDS011;3173;48.204;11.612;2022-10-16T12:25:30;2.22;;;0.40;;
6280;SDS011;3173;48.204;11.612;2022-10-16T12:30:26;0.73;;;0.50;;
6280;SDS011;3173;48.204;11.612;2022-10-16T12:32:55;0.98;;;0.50;;
6280;SDS011;3173;48.204;11.612;2022-10-16T12:35:30;1.63;;;0.60;;
6280;SDS011;3173;48.204;11.612;2022-10-16T12:38:14;1.00;;;0.50;;
6280;SDS011;3173;48.204;11.612;2022-10-16T12:40:40;1.20;;;0.50;;
6280;SDS011;3173;48.204;11.612;2022-10-16T12:43:28;0.90;;;0.80;;
6280;SDS011;3173;48.204;11.612;2022-10-16T12:46:03;1.20;;;0.60;;
6280;SDS011;3173;48.204;11.612;2022-10-16T12:48:31;1.33;;;0.97;;
6280;SDS011;3173;48.204;11.612;2022-10-16T12:50:57;1.17;;;0.60;;
6280;SDS011;3173;48.204;11.612;2022-10-16T12:53:25;1.93;;;0.60;;
6280;SDS011;3173;48.204;11.612;2022-10-16T12:56:04;0.80;;;0.50;;
6280;SDS011;3173;48.204;11.612;2022-10-16T13:01:21;1.37;;;0.67;;
6280;SDS011;3173;48.204;11.612;2022-10-16T13:09:49;3.53;;;0.50;;
6280;SDS011;3173;48.204;11.612;2022-10-16T13:12:35;0.83;;;0.50;;
6280;SDS011;3173;48.204;11.612;2022-10-16T13:15:24;1.20;;;0.60;;
6280;SDS011;3173;48.204;11.612;2022-10-16T13:23:26;4.33;;;0.70;;
6280;SDS011;3173;48.204;11.612;2022-10-16T13:28:59;0.87;;;0.50;;
6280;SDS011;3173;48.204;11.612;2022-10-16T13:31:26;1.27;;;0.50;;
6280;SDS011;3173;48.204;11.612;2022-10-16T13:33:53;0.80;;;0.50;;
6280;SDS011;3173;48.204;11.612;2022-10-16T13:36:25;2.20;;;0.60;;
6280;SDS011;3173;48.204;11.612;2022-10-16T13:39:24;2.97;;;0.50;;
6280;SDS011;3173;48.204;11.612;2022-10-16T13:42:01;0.93;;;0.50;;
6280;SDS011;3173;48.204;11.612;2022-10-16T13:44:48;2.43;;;0.70;;
6280;SDS011;3173;48.204;11.612;2022-10-16T13:47:20;0.97;;;0.40;;
6280;SDS011;3173;48.204;11.612;2022-10-16T13:52:25;1.83;;;0.70;;
6280;SDS011;3173;48.204;11.612;2022-10-16T13:54:51;0.90;;;0.50;;
6280;SDS011;3173;48.204;11.612;2022-10-16T13:57:17;0.80;;;0.50;;
6280;SDS011;3173;48.204;11.612;2022-10-16T13:59:42;3.00;;;0.50;;
6280;SDS011;3173;48.204;11.612;2022-10-16T14:02:17;1.10;;;0.60;;
6280;SDS011;3173;48.204;11.612;2022-10-16T14:04:47;0.80;;;0.50;;
6280;SDS011;3173;48.204;11.612;2022-10-16T14:07:14;1.10;;;0.60;;
6280;SDS011;3173;48.204;11.612;2022-10-16T14:09:47;2.03;;;0.60;;
6280;SDS011;3173;48.204;11.612;2022-10-16T14:12:15;0.90;;;0.50;;
6280;SDS011;3173;48.204;11.612;2022-10-16T14:14:42;1.00;;;0.60;;
6280;SDS011;3173;48.204;11.612;2022-10-16T14:17:16;4.90;;;0.50;;
6280;SDS011;3173;48.204;11.612;2022-10-16T14:19:47;0.90;;;0.60;;
6280;SDS011;3173;48.204;11.612;2022-10-16T14:22:32;1.47;;;0.60;;
6280;SDS011;3173;48.204;11.612;2022-10-16T14:24:58;1.97;;;0.97;;
6280;SDS011;3173;48.204;11.612;2022-10-16T14:30:08;1.03;;;0.60;;
6280;SDS011;3173;48.204;11.612;2022-10-16T14:32:53;3.60;;;0.90;;
6280;SDS011;3173;48.204;11.612;2022-10-16T14:35:23;1.13;;;0.60;;
6280;SDS011;3173;48.204;11.612;2022-10-16T14:37:51;1.33;;;0.60;;
6280;SDS011;3173;48.204;11.612;2022-10-16T14:40:18;1.40;;;0.90;;
6280;SDS011;3173;48.204;11.612;2022-10-16T14:42:45;1.60;;;0.80;;
6280;SDS011;3173;48.204;11.612;2022-10-16T14:45:11;1.80;;;0.90;;
6280;SDS011;3173;48.204;11.612;2022-10-16T14:47:37;1.93;;;0.70;;
6280;SDS011;3173;48.204;11.612;2022-10-16T14:50:14;2.10;;;0.67;;
6280;SDS011;3173;48.204;11.612;2022-10-16T14:52:39;2.20;;;0.80;;
6280;SDS011;3173;48.204;11.612;2022-10-16T14:55:05;1.30;;;0.70;;
6280;SDS011;3173;48.204;11.612;2022-10-16T14:57:32;2.37;;;0.83;;
6280;SDS011;3173;48.204;11.612;2022-10-16T15:00:00;2.10;;;1.20;;
6280;SDS011;3173;48.204;11.612;2022-10-16T15:04:57;2.80;;;1.30;;
6280;SDS011;3173;48.204;11.612;2022-10-16T15:07:23;2.33;;;1.03;;
6280;SDS011;3173;48.204;11.612;2022-10-16T15:09:49;1.53;;;0.90;;
6280;SDS011;3173;48.204;11.612;2022-10-16T15:12:15;3.30;;;1.00;;
6280;SDS011;3173;48.204;11.612;2022-10-16T15:14:42;3.13;;;1.00;;
6280;SDS011;3173;48.204;11.612;2022-10-16T15:17:09;3.50;;;1.00;;
6280;SDS011;3173;48.204;11.612;2022-10-16T15:19:36;4.70;;;1.00;;
6280;SDS011;3173;48.204;11.612;2022-10-16T15:22:01;1.63;;;0.90;;
6280;SDS011;3173;48.204;11.612;2022-10-16T15:24:27;2.20;;;1.10;;
6280;SDS011;3173;48.204;11.612;2022-10-16T15:26:52;2.50;;;1.00;;
6280;SDS011;3173;48.204;11.612;2022-10-16T15:29:18;2.10;;;1.10;;
6280;SDS011;3173;48.204;11.612;2022-10-16T15:31:44;2.33;;;1.17;;
6280;SDS011;3173;48.204;11.612;2022-10-16T15:34:12;4.83;;;1.40;;
6280;SDS011;3173;48.204;11.612;2022-10-16T15:36:38;3.50;;;1.37;;
6280;SDS011;3173;48.204;11.612;2022-10-16T15:39:17;1.80;;;1.30;;
6280;SDS011;3173;48.204;11.612;2022-10-16T15:41:44;3.40;;;1.20;;
6280;SDS011;3173;48.204;11.612;2022-10-16T15:44:15;2.57;;;1.13;;
6280;SDS011;3173;48.204;11.612;2022-10-16T15:46:41;4.53;;;1.30;;
6280;SDS011;3173;48.204;11.612;2022-10-16T15:49:07;5.70;;;1.43;;
6280;SDS011;3173;48.204;11.612;2022-10-16T15:51:34;3.20;;;1.10;;
6280;SDS011;3173;48.204;11.612;2022-10-16T15:54:03;3.17;;;1.27;;
6280;SDS011;3173;48.204;11.612;2022-10-16T15:56:29;8.97;;;5.20;;
6280;SDS011;3173;48.204;11.612;2022-10-16T15:58:58;7.67;;;5.10;;
6280;SDS011;3173;48.204;11.612;2022-10-16T16:01:23;17.17;;;9.80;;
6280;SDS011;3173;48.204;11.612;2022-10-16T16:03:52;23.63;;;13.10;;
6280;SDS011;3173;48.204;11.612;2022-10-16T16:06:18;14.60;;;9.57;;
6280;SDS011;3173;48.204;11.612;2022-10-16T16:08:44;11.73;;;7.33;;
6280;SDS011;3173;48.204;11.612;2022-10-16T16:11:11;7.93;;;3.80;;
6280;SDS011;3173;48.204;11.612;2022-10-16T16:13:38;3.50;;;2.60;;
6280;SDS011;3173;48.204;11.612;2022-10-16T16:16:08;3.33;;;2.13;;
6280;SDS011;3173;48.204;11.612;2022-10-16T16:18:35;3.17;;;1.87;;
6280;SDS011;3173;48.204;11.612;2022-10-16T16:21:01;4.43;;;2.33;;
6280;SDS011;3173;48.204;11.612;2022-10-16T16:23:27;6.47;;;4.10;;
6280;SDS011;3173;48.204;11.612;2022-10-16T16:26:18;3.20;;;2.03;;
6280;SDS011;3173;48.204;11.612;2022-10-16T16:28:40;6.20;;;2.07;;
6280;SDS011;3173;48.204;11.612;2022-10-16T16:31:06;4.57;;;1.80;;
6280;SDS011;3173;48.204;11.612;2022-10-16T16:33:32;8.30;;;2.33;;
6280;SDS011;3173;48.204;11.612;2022-10-16T16:35:59;4.47;;;2.17;;
6280;SDS011;3173;48.204;11.612;2022-10-16T16:38:26;3.87;;;1.97;;
6280;SDS011;3173;48.204;11.612;2022-10-16T16:40:52;13.03;;;3.07;;
6280;SDS011;3173;48.204;11.612;2022-10-16T16:43:18;3.37;;;2.00;;